메인 페이지
METAR-TAF:

METAR-TAF

공항 :

Frederick, 오클라호마, 미국

위도: 34-20-40N, 경도: 098-58-59W, 고도: 382m

현재 날씨관측

예보는 22분 전, 00:53시(UTC)에 발표되었습니다.
북북동4kt
온도 16°C
습도 55%
기압 1024 hPa
시정: 16.1km
맑음

METAR: KFDR 260053Z AUTO 03004KT 10SM CLR 16/07 A3023 RMK AO2 SLP230 T01610072

시각: 20:15 (01:15 UTC)


TAF: 누락

4,000개 이상의 공항 관측 자료 및 예보 (METAR 및 TAF 보고).

지도상에서 검색 가능한 기상관측소가 노란 점과 빨간 점으로 표시되어 있습니다.

기상관측소 명을 보려면 표시 위로 마우스를 이동하세요.

날씨 관측과 예보를 보려면 클릭하세요.

지도 변경 : 확대하려면 엑스 표시가 있는 녹색 버튼, 축소하려면 빼기 표시가 있는 녹색 버튼, 다음 페이지의 지도를 보려면 녹색 화살표를 클릭하세요.


METAR-TAF: